Aviation Digital Data Service (ADDS)

Output produced by METARs form (1758 UTC 31 July 2021)
found at http://www.aviationweather.gov/metar/data/
 
KGSO 311740Z 3118/0118 VRB05KT P6SM SCT250 
     FM010400 VRB04KT P6SM BKN200 
     FM011700 30008KT P6SM FEW050 BKN250